sensor_id;sensor_type;location;lat;lon;timestamp;temperature;humidity
6948;DHT22;3513;47.664;9.162;2023-12-04T00:01:49;-2.70;99.90
6948;DHT22;3513;47.664;9.162;2023-12-04T00:04:14;-2.70;99.90
6948;DHT22;3513;47.664;9.162;2023-12-04T00:06:43;-2.70;99.90
6948;DHT22;3513;47.664;9.162;2023-12-04T00:09:08;-2.40;99.90
6948;DHT22;3513;47.664;9.162;2023-12-04T00:11:34;-2.20;99.90
6948;DHT22;3513;47.664;9.162;2023-12-04T00:14:00;-2.30;99.90
6948;DHT22;3513;47.664;9.162;2023-12-04T00:16:26;-2.40;99.90
6948;DHT22;3513;47.664;9.162;2023-12-04T00:18:51;-2.20;99.90
6948;DHT22;3513;47.664;9.162;2023-12-04T00:21:17;-2.30;99.90
6948;DHT22;3513;47.664;9.162;2023-12-04T00:23:42;-2.10;99.90
6948;DHT22;3513;47.664;9.162;2023-12-04T00:26:08;-2.50;99.90
6948;DHT22;3513;47.664;9.162;2023-12-04T00:28:37;-2.50;99.90
6948;DHT22;3513;47.664;9.162;2023-12-04T00:31:02;-2.30;99.90
6948;DHT22;3513;47.664;9.162;2023-12-04T00:33:28;-2.40;99.90
6948;DHT22;3513;47.664;9.162;2023-12-04T00:35:54;-2.50;99.90
6948;DHT22;3513;47.664;9.162;2023-12-04T00:38:19;-2.50;99.90
6948;DHT22;3513;47.664;9.162;2023-12-04T00:40:45;-2.60;99.90
6948;DHT22;3513;47.664;9.162;2023-12-04T00:43:10;-2.90;99.90
6948;DHT22;3513;47.664;9.162;2023-12-04T00:45:36;-2.90;99.90
6948;DHT22;3513;47.664;9.162;2023-12-04T00:48:02;-3.00;99.90
6948;DHT22;3513;47.664;9.162;2023-12-04T00:50:28;-3.00;99.90
6948;DHT22;3513;47.664;9.162;2023-12-04T00:52:54;-3.00;99.90
6948;DHT22;3513;47.664;9.162;2023-12-04T00:55:19;-2.90;99.90
6948;DHT22;3513;47.664;9.162;2023-12-04T00:57:45;-3.10;99.90
6948;DHT22;3513;47.664;9.162;2023-12-04T01:00:11;-3.20;99.90
6948;DHT22;3513;47.664;9.162;2023-12-04T01:02:37;-3.10;99.90
6948;DHT22;3513;47.664;9.162;2023-12-04T01:05:03;-2.80;99.90
6948;DHT22;3513;47.664;9.162;2023-12-04T01:07:29;-2.60;99.90
6948;DHT22;3513;47.664;9.162;2023-12-04T01:09:54;-2.60;99.90
6948;DHT22;3513;47.664;9.162;2023-12-04T01:12:20;-2.90;99.90
6948;DHT22;3513;47.664;9.162;2023-12-04T01:14:46;-2.80;99.90
6948;DHT22;3513;47.664;9.162;2023-12-04T01:17:12;-2.80;99.90
6948;DHT22;3513;47.664;9.162;2023-12-04T01:19:37;-2.80;99.90
6948;DHT22;3513;47.664;9.162;2023-12-04T01:22:03;-2.90;99.90
6948;DHT22;3513;47.664;9.162;2023-12-04T01:24:29;-3.10;99.90
6948;DHT22;3513;47.664;9.162;2023-12-04T01:26:54;-3.30;99.90
6948;DHT22;3513;47.664;9.162;2023-12-04T01:29:20;-3.30;99.90
6948;DHT22;3513;47.664;9.162;2023-12-04T01:31:45;-3.10;99.90
6948;DHT22;3513;47.664;9.162;2023-12-04T01:34:11;-3.10;99.90
6948;DHT22;3513;47.664;9.162;2023-12-04T01:36:40;-3.10;99.90
6948;DHT22;3513;47.664;9.162;2023-12-04T01:39:06;-3.20;99.90
6948;DHT22;3513;47.664;9.162;2023-12-04T01:41:31;-3.40;99.90
6948;DHT22;3513;47.664;9.162;2023-12-04T01:43:57;-3.70;99.90
6948;DHT22;3513;47.664;9.162;2023-12-04T01:46:23;-3.70;99.90
6948;DHT22;3513;47.664;9.162;2023-12-04T01:48:49;-3.70;99.90
6948;DHT22;3513;47.664;9.162;2023-12-04T01:51:16;-3.50;99.90
6948;DHT22;3513;47.664;9.162;2023-12-04T01:53:43;-3.50;99.90
6948;DHT22;3513;47.664;9.162;2023-12-04T01:56:09;-3.70;99.90
6948;DHT22;3513;47.664;9.162;2023-12-04T01:58:35;-3.80;99.90
6948;DHT22;3513;47.664;9.162;2023-12-04T02:01:01;-3.80;99.90
6948;DHT22;3513;47.664;9.162;2023-12-04T02:03:27;-3.80;99.90
6948;DHT22;3513;47.664;9.162;2023-12-04T02:05:53;-3.80;99.90
6948;DHT22;3513;47.664;9.162;2023-12-04T02:08:20;-3.70;99.90
6948;DHT22;3513;47.664;9.162;2023-12-04T02:10:46;-3.70;99.90
6948;DHT22;3513;47.664;9.162;2023-12-04T02:13:11;-3.50;99.90
6948;DHT22;3513;47.664;9.162;2023-12-04T02:15:37;-3.60;99.90
6948;DHT22;3513;47.664;9.162;2023-12-04T02:18:03;-3.80;99.90
6948;DHT22;3513;47.664;9.162;2023-12-04T02:20:35;-3.80;99.90
6948;DHT22;3513;47.664;9.162;2023-12-04T02:23:04;-3.90;99.90
6948;DHT22;3513;47.664;9.162;2023-12-04T02:25:30;-3.80;99.90
6948;DHT22;3513;47.664;9.162;2023-12-04T02:27:59;-3.90;99.90
6948;DHT22;3513;47.664;9.162;2023-12-04T02:30:27;-4.10;99.90
6948;DHT22;3513;47.664;9.162;2023-12-04T02:32:57;-4.10;99.90
6948;DHT22;3513;47.664;9.162;2023-12-04T02:35:26;-4.20;99.90
6948;DHT22;3513;47.664;9.162;2023-12-04T02:37:53;-4.20;99.90
6948;DHT22;3513;47.664;9.162;2023-12-04T02:40:19;-4.30;99.90
6948;DHT22;3513;47.664;9.162;2023-12-04T02:42:45;-4.40;99.90
6948;DHT22;3513;47.664;9.162;2023-12-04T02:45:11;-4.50;99.90
6948;DHT22;3513;47.664;9.162;2023-12-04T02:47:36;-4.50;99.90
6948;DHT22;3513;47.664;9.162;2023-12-04T02:50:02;-4.50;99.90
6948;DHT22;3513;47.664;9.162;2023-12-04T02:52:28;-4.50;99.90
6948;DHT22;3513;47.664;9.162;2023-12-04T02:54:53;-4.40;99.90
6948;DHT22;3513;47.664;9.162;2023-12-04T02:57:19;-4.40;99.90
6948;DHT22;3513;47.664;9.162;2023-12-04T02:59:45;-4.40;99.90
6948;DHT22;3513;47.664;9.162;2023-12-04T03:02:11;-4.40;99.90
6948;DHT22;3513;47.664;9.162;2023-12-04T03:04:36;-4.40;99.90
6948;DHT22;3513;47.664;9.162;2023-12-04T03:07:02;-4.30;99.90
6948;DHT22;3513;47.664;9.162;2023-12-04T03:09:28;-4.30;99.90
6948;DHT22;3513;47.664;9.162;2023-12-04T03:11:53;-4.30;99.90
6948;DHT22;3513;47.664;9.162;2023-12-04T03:14:19;-4.30;99.90
6948;DHT22;3513;47.664;9.162;2023-12-04T03:16:44;-4.30;99.90
6948;DHT22;3513;47.664;9.162;2023-12-04T03:19:10;-4.30;99.90
6948;DHT22;3513;47.664;9.162;2023-12-04T03:21:35;-4.30;99.90
6948;DHT22;3513;47.664;9.162;2023-12-04T03:24:01;-4.40;99.90
6948;DHT22;3513;47.664;9.162;2023-12-04T03:26:27;-4.10;99.90
6948;DHT22;3513;47.664;9.162;2023-12-04T03:28:53;-4.10;99.90
6948;DHT22;3513;47.664;9.162;2023-12-04T03:31:19;-4.00;99.90
6948;DHT22;3513;47.664;9.162;2023-12-04T03:33:44;-3.90;99.90
6948;DHT22;3513;47.664;9.162;2023-12-04T03:36:10;-3.80;99.90
6948;DHT22;3513;47.664;9.162;2023-12-04T03:38:35;-3.70;99.90
6948;DHT22;3513;47.664;9.162;2023-12-04T03:41:01;-3.40;99.90
6948;DHT22;3513;47.664;9.162;2023-12-04T03:43:27;-3.30;99.90
6948;DHT22;3513;47.664;9.162;2023-12-04T03:45:52;-3.10;99.90
6948;DHT22;3513;47.664;9.162;2023-12-04T03:48:18;-3.10;99.90
6948;DHT22;3513;47.664;9.162;2023-12-04T03:50:43;-3.10;99.90
6948;DHT22;3513;47.664;9.162;2023-12-04T03:53:09;-3.10;99.90
6948;DHT22;3513;47.664;9.162;2023-12-04T03:55:34;-3.10;99.90
6948;DHT22;3513;47.664;9.162;2023-12-04T03:58:00;-2.90;99.90
6948;DHT22;3513;47.664;9.162;2023-12-04T04:00:25;-2.90;99.90
6948;DHT22;3513;47.664;9.162;2023-12-04T04:02:51;-2.90;99.90
6948;DHT22;3513;47.664;9.162;2023-12-04T04:05:16;-2.80;99.90
6948;DHT22;3513;47.664;9.162;2023-12-04T04:07:42;-2.50;99.90
6948;DHT22;3513;47.664;9.162;2023-12-04T04:10:08;-3.10;99.90
6948;DHT22;3513;47.664;9.162;2023-12-04T04:12:34;-3.20;99.90
6948;DHT22;3513;47.664;9.162;2023-12-04T04:15:00;-3.20;99.90
6948;DHT22;3513;47.664;9.162;2023-12-04T04:17:25;-3.00;99.90
6948;DHT22;3513;47.664;9.162;2023-12-04T04:19:54;-3.20;99.90
6948;DHT22;3513;47.664;9.162;2023-12-04T04:22:20;-3.30;99.90
6948;DHT22;3513;47.664;9.162;2023-12-04T04:24:46;-3.30;99.90
6948;DHT22;3513;47.664;9.162;2023-12-04T04:27:12;-3.40;99.90
6948;DHT22;3513;47.664;9.162;2023-12-04T04:29:37;-3.40;99.90
6948;DHT22;3513;47.664;9.162;2023-12-04T04:32:03;-3.40;99.90
6948;DHT22;3513;47.664;9.162;2023-12-04T04:34:29;-3.30;99.90
6948;DHT22;3513;47.664;9.162;2023-12-04T04:36:55;-3.10;99.90
6948;DHT22;3513;47.664;9.162;2023-12-04T04:39:20;-3.00;99.90
6948;DHT22;3513;47.664;9.162;2023-12-04T04:41:46;-2.80;99.90
6948;DHT22;3513;47.664;9.162;2023-12-04T04:44:11;-2.60;99.90
6948;DHT22;3513;47.664;9.162;2023-12-04T04:46:37;-2.60;99.90
6948;DHT22;3513;47.664;9.162;2023-12-04T04:49:03;-2.70;99.90
6948;DHT22;3513;47.664;9.162;2023-12-04T04:51:32;-2.60;99.90
6948;DHT22;3513;47.664;9.162;2023-12-04T04:53:59;-2.60;99.90
6948;DHT22;3513;47.664;9.162;2023-12-04T04:56:25;-2.60;99.90
6948;DHT22;3513;47.664;9.162;2023-12-04T04:58:50;-2.70;99.90
6948;DHT22;3513;47.664;9.162;2023-12-04T05:01:16;-2.60;99.90
6948;DHT22;3513;47.664;9.162;2023-12-04T05:03:42;-2.70;99.90
6948;DHT22;3513;47.664;9.162;2023-12-04T05:06:07;-3.00;99.90
6948;DHT22;3513;47.664;9.162;2023-12-04T05:08:33;-3.10;99.90
6948;DHT22;3513;47.664;9.162;2023-12-04T05:10:59;-3.10;99.90
6948;DHT22;3513;47.664;9.162;2023-12-04T05:13:24;-3.30;99.90
6948;DHT22;3513;47.664;9.162;2023-12-04T05:15:50;-3.30;99.90
6948;DHT22;3513;47.664;9.162;2023-12-04T05:18:15;-3.20;99.90
6948;DHT22;3513;47.664;9.162;2023-12-04T05:20:41;-3.10;99.90
6948;DHT22;3513;47.664;9.162;2023-12-04T05:23:07;-2.90;99.90
6948;DHT22;3513;47.664;9.162;2023-12-04T05:25:32;-2.90;99.90
6948;DHT22;3513;47.664;9.162;2023-12-04T05:27:58;-3.00;99.90
6948;DHT22;3513;47.664;9.162;2023-12-04T05:30:23;-3.10;99.90
6948;DHT22;3513;47.664;9.162;2023-12-04T05:32:49;-3.20;99.90
6948;DHT22;3513;47.664;9.162;2023-12-04T05:35:15;-3.10;99.90
6948;DHT22;3513;47.664;9.162;2023-12-04T05:37:42;-3.10;99.90
6948;DHT22;3513;47.664;9.162;2023-12-04T05:40:08;-2.90;99.90
6948;DHT22;3513;47.664;9.162;2023-12-04T05:42:33;-2.70;99.90
6948;DHT22;3513;47.664;9.162;2023-12-04T05:44:59;-2.60;99.90
6948;DHT22;3513;47.664;9.162;2023-12-04T05:47:26;-2.60;99.90
6948;DHT22;3513;47.664;9.162;2023-12-04T05:49:51;-2.80;99.90
6948;DHT22;3513;47.664;9.162;2023-12-04T05:52:17;-2.90;99.90
6948;DHT22;3513;47.664;9.162;2023-12-04T05:54:42;-2.90;99.90
6948;DHT22;3513;47.664;9.162;2023-12-04T05:57:08;-2.90;99.90
6948;DHT22;3513;47.664;9.162;2023-12-04T05:59:34;-2.80;99.90
6948;DHT22;3513;47.664;9.162;2023-12-04T06:02:00;-2.70;99.90
6948;DHT22;3513;47.664;9.162;2023-12-04T06:04:26;-2.90;99.90
6948;DHT22;3513;47.664;9.162;2023-12-04T06:06:52;-2.80;99.90
6948;DHT22;3513;47.664;9.162;2023-12-04T06:09:18;-2.70;99.90
6948;DHT22;3513;47.664;9.162;2023-12-04T06:11:43;-2.80;99.90
6948;DHT22;3513;47.664;9.162;2023-12-04T06:14:09;-2.70;99.90
6948;DHT22;3513;47.664;9.162;2023-12-04T06:16:36;-2.70;99.90
6948;DHT22;3513;47.664;9.162;2023-12-04T06:19:01;-2.70;99.90
6948;DHT22;3513;47.664;9.162;2023-12-04T06:21:28;-2.70;99.90
6948;DHT22;3513;47.664;9.162;2023-12-04T06:23:53;-2.60;99.90
6948;DHT22;3513;47.664;9.162;2023-12-04T06:26:19;-2.50;99.90
6948;DHT22;3513;47.664;9.162;2023-12-04T06:28:45;-2.50;99.90
6948;DHT22;3513;47.664;9.162;2023-12-04T06:31:11;-2.50;99.90
6948;DHT22;3513;47.664;9.162;2023-12-04T06:33:37;-2.50;99.90
6948;DHT22;3513;47.664;9.162;2023-12-04T06:36:04;-2.70;99.90
6948;DHT22;3513;47.664;9.162;2023-12-04T06:38:32;-2.60;99.90
6948;DHT22;3513;47.664;9.162;2023-12-04T06:41:01;-2.50;99.90
6948;DHT22;3513;47.664;9.162;2023-12-04T06:43:27;-2.40;99.90
6948;DHT22;3513;47.664;9.162;2023-12-04T06:45:53;-2.40;99.90
6948;DHT22;3513;47.664;9.162;2023-12-04T06:48:22;-2.40;99.90
6948;DHT22;3513;47.664;9.162;2023-12-04T06:50:48;-2.60;99.90
6948;DHT22;3513;47.664;9.162;2023-12-04T06:53:13;-2.50;99.90
6948;DHT22;3513;47.664;9.162;2023-12-04T06:55:39;-2.50;99.90
6948;DHT22;3513;47.664;9.162;2023-12-04T06:58:05;-2.60;99.90
6948;DHT22;3513;47.664;9.162;2023-12-04T07:00:30;-2.70;99.90
6948;DHT22;3513;47.664;9.162;2023-12-04T07:02:56;-2.90;99.90
6948;DHT22;3513;47.664;9.162;2023-12-04T07:05:22;-3.10;99.90
6948;DHT22;3513;47.664;9.162;2023-12-04T07:07:47;-3.10;99.90
6948;DHT22;3513;47.664;9.162;2023-12-04T07:10:13;-3.10;99.90
6948;DHT22;3513;47.664;9.162;2023-12-04T07:12:40;-3.00;99.90
6948;DHT22;3513;47.664;9.162;2023-12-04T07:15:07;-2.80;99.90
6948;DHT22;3513;47.664;9.162;2023-12-04T07:17:33;-2.60;99.90
6948;DHT22;3513;47.664;9.162;2023-12-04T07:19:58;-2.40;99.90
6948;DHT22;3513;47.664;9.162;2023-12-04T07:22:24;-2.50;99.90
6948;DHT22;3513;47.664;9.162;2023-12-04T07:24:49;-2.40;99.90
6948;DHT22;3513;47.664;9.162;2023-12-04T07:27:15;-2.30;99.90
6948;DHT22;3513;47.664;9.162;2023-12-04T07:29:41;-2.20;99.90
6948;DHT22;3513;47.664;9.162;2023-12-04T07:32:07;-2.20;99.90
6948;DHT22;3513;47.664;9.162;2023-12-04T07:34:32;-2.20;99.90
6948;DHT22;3513;47.664;9.162;2023-12-04T07:36:58;-2.20;99.90
6948;DHT22;3513;47.664;9.162;2023-12-04T07:39:24;-2.30;99.90
6948;DHT22;3513;47.664;9.162;2023-12-04T07:41:49;-2.50;99.90
6948;DHT22;3513;47.664;9.162;2023-12-04T07:44:15;-2.60;99.90
6948;DHT22;3513;47.664;9.162;2023-12-04T07:46:41;-2.70;99.90
6948;DHT22;3513;47.664;9.162;2023-12-04T07:49:06;-2.80;99.90
6948;DHT22;3513;47.664;9.162;2023-12-04T07:51:32;-3.10;99.90
6948;DHT22;3513;47.664;9.162;2023-12-04T07:53:58;-3.20;99.90
6948;DHT22;3513;47.664;9.162;2023-12-04T07:56:23;-3.10;99.90
6948;DHT22;3513;47.664;9.162;2023-12-04T07:58:49;-3.00;99.90
6948;DHT22;3513;47.664;9.162;2023-12-04T08:01:15;-3.10;99.90
6948;DHT22;3513;47.664;9.162;2023-12-04T08:03:40;-3.10;99.90
6948;DHT22;3513;47.664;9.162;2023-12-04T08:06:06;-3.10;99.90
6948;DHT22;3513;47.664;9.162;2023-12-04T08:08:31;-3.10;99.90
6948;DHT22;3513;47.664;9.162;2023-12-04T08:10:57;-3.10;99.90
6948;DHT22;3513;47.664;9.162;2023-12-04T08:13:23;-3.10;99.90
6948;DHT22;3513;47.664;9.162;2023-12-04T08:15:48;-3.00;99.90
6948;DHT22;3513;47.664;9.162;2023-12-04T08:18:14;-2.90;99.90
6948;DHT22;3513;47.664;9.162;2023-12-04T08:20:40;-2.80;99.90
6948;DHT22;3513;47.664;9.162;2023-12-04T08:23:05;-2.60;99.90
6948;DHT22;3513;47.664;9.162;2023-12-04T08:25:31;-2.70;99.90
6948;DHT22;3513;47.664;9.162;2023-12-04T08:27:58;-2.80;99.90
6948;DHT22;3513;47.664;9.162;2023-12-04T08:30:25;-3.00;99.90
6948;DHT22;3513;47.664;9.162;2023-12-04T08:32:52;-3.00;99.90
6948;DHT22;3513;47.664;9.162;2023-12-04T08:35:18;-2.90;99.90
6948;DHT22;3513;47.664;9.162;2023-12-04T08:37:43;-2.90;99.90
6948;DHT22;3513;47.664;9.162;2023-12-04T08:40:09;-2.70;99.90
6948;DHT22;3513;47.664;9.162;2023-12-04T08:42:35;-2.80;99.90
6948;DHT22;3513;47.664;9.162;2023-12-04T08:45:01;-3.00;99.90
6948;DHT22;3513;47.664;9.162;2023-12-04T08:47:26;-3.20;99.90
6948;DHT22;3513;47.664;9.162;2023-12-04T08:49:52;-3.00;99.90
6948;DHT22;3513;47.664;9.162;2023-12-04T08:52:18;-2.90;99.90
6948;DHT22;3513;47.664;9.162;2023-12-04T08:54:44;-2.70;99.90
6948;DHT22;3513;47.664;9.162;2023-12-04T08:57:09;-2.40;99.90
6948;DHT22;3513;47.664;9.162;2023-12-04T08:59:35;-2.40;99.90
6948;DHT22;3513;47.664;9.162;2023-12-04T09:02:01;-2.40;99.90
6948;DHT22;3513;47.664;9.162;2023-12-04T09:04:33;-2.20;99.90
6948;DHT22;3513;47.664;9.162;2023-12-04T09:06:59;-2.30;99.90
6948;DHT22;3513;47.664;9.162;2023-12-04T09:09:24;-2.30;99.90
6948;DHT22;3513;47.664;9.162;2023-12-04T09:11:50;-2.10;99.90
6948;DHT22;3513;47.664;9.162;2023-12-04T09:14:16;-2.10;99.90
6948;DHT22;3513;47.664;9.162;2023-12-04T09:16:42;-2.20;99.90
6948;DHT22;3513;47.664;9.162;2023-12-04T09:19:08;-2.30;99.90
6948;DHT22;3513;47.664;9.162;2023-12-04T09:21:35;-2.20;99.90
6948;DHT22;3513;47.664;9.162;2023-12-04T09:24:01;-2.40;99.90
6948;DHT22;3513;47.664;9.162;2023-12-04T09:26:26;-2.50;99.90
6948;DHT22;3513;47.664;9.162;2023-12-04T09:28:52;-2.40;99.90
6948;DHT22;3513;47.664;9.162;2023-12-04T09:31:18;-2.40;99.90
6948;DHT22;3513;47.664;9.162;2023-12-04T09:33:44;-2.10;99.90
6948;DHT22;3513;47.664;9.162;2023-12-04T09:36:10;-2.10;99.90
6948;DHT22;3513;47.664;9.162;2023-12-04T09:38:35;-1.90;99.90
6948;DHT22;3513;47.664;9.162;2023-12-04T09:41:01;-1.80;99.90
6948;DHT22;3513;47.664;9.162;2023-12-04T09:43:31;-1.70;99.90
6948;DHT22;3513;47.664;9.162;2023-12-04T09:45:57;-1.80;99.90
6948;DHT22;3513;47.664;9.162;2023-12-04T09:48:26;-1.60;99.90
6948;DHT22;3513;47.664;9.162;2023-12-04T09:50:52;-1.60;99.90
6948;DHT22;3513;47.664;9.162;2023-12-04T09:53:18;-1.90;99.90
6948;DHT22;3513;47.664;9.162;2023-12-04T09:55:48;-2.00;99.90
6948;DHT22;3513;47.664;9.162;2023-12-04T09:58:14;-2.00;99.90
6948;DHT22;3513;47.664;9.162;2023-12-04T10:00:42;-2.00;99.90
6948;DHT22;3513;47.664;9.162;2023-12-04T10:03:08;-1.90;99.90
6948;DHT22;3513;47.664;9.162;2023-12-04T10:05:34;-1.70;99.90
6948;DHT22;3513;47.664;9.162;2023-12-04T10:08:00;-1.40;99.90
6948;DHT22;3513;47.664;9.162;2023-12-04T10:10:25;-1.60;99.90
6948;DHT22;3513;47.664;9.162;2023-12-04T10:12:51;-1.60;99.90
6948;DHT22;3513;47.664;9.162;2023-12-04T10:15:16;-1.50;99.90
6948;DHT22;3513;47.664;9.162;2023-12-04T10:17:42;-1.50;99.90
6948;DHT22;3513;47.664;9.162;2023-12-04T10:20:14;-1.60;99.90
6948;DHT22;3513;47.664;9.162;2023-12-04T10:22:58;-1.60;99.90
6948;DHT22;3513;47.664;9.162;2023-12-04T10:25:25;-1.80;99.90
6948;DHT22;3513;47.664;9.162;2023-12-04T10:27:53;-2.10;99.90
6948;DHT22;3513;47.664;9.162;2023-12-04T10:32:48;-1.90;99.90
6948;DHT22;3513;47.664;9.162;2023-12-04T10:35:14;-1.70;99.90
6948;DHT22;3513;47.664;9.162;2023-12-04T10:37:40;-1.60;99.90
6948;DHT22;3513;47.664;9.162;2023-12-04T10:40:06;-1.60;99.90
6948;DHT22;3513;47.664;9.162;2023-12-04T10:42:35;-1.50;99.90
6948;DHT22;3513;47.664;9.162;2023-12-04T10:45:01;-1.40;99.90
6948;DHT22;3513;47.664;9.162;2023-12-04T10:47:29;-1.30;99.90
6948;DHT22;3513;47.664;9.162;2023-12-04T10:49:56;-1.10;99.90
6948;DHT22;3513;47.664;9.162;2023-12-04T10:52:22;-1.10;99.90
6948;DHT22;3513;47.664;9.162;2023-12-04T10:54:48;-1.00;99.90
6948;DHT22;3513;47.664;9.162;2023-12-04T10:57:27;-0.90;99.90
6948;DHT22;3513;47.664;9.162;2023-12-04T10:59:58;-0.60;99.90
6948;DHT22;3513;47.664;9.162;2023-12-04T11:02:26;-0.70;99.60
6948;DHT22;3513;47.664;9.162;2023-12-04T11:05:01;-0.60;99.90
6948;DHT22;3513;47.664;9.162;2023-12-04T11:07:30;-0.50;99.50
6948;DHT22;3513;47.664;9.162;2023-12-04T11:09:57;-0.40;99.30
6948;DHT22;3513;47.664;9.162;2023-12-04T11:12:25;-0.30;99.80
6948;DHT22;3513;47.664;9.162;2023-12-04T11:14:58;-0.30;98.90
6948;DHT22;3513;47.664;9.162;2023-12-04T11:17:25;-0.10;99.80
6948;DHT22;3513;47.664;9.162;2023-12-04T11:20:02;0.10;99.90
6948;DHT22;3513;47.664;9.162;2023-12-04T11:22:34;0.20;99.80
6948;DHT22;3513;47.664;9.162;2023-12-04T11:25:01;0.30;99.00
6948;DHT22;3513;47.664;9.162;2023-12-04T11:27:31;0.30;98.50
6948;DHT22;3513;47.664;9.162;2023-12-04T11:29:57;0.40;99.10
6948;DHT22;3513;47.664;9.162;2023-12-04T11:32:24;0.50;99.20
6948;DHT22;3513;47.664;9.162;2023-12-04T11:34:58;0.80;99.10
6948;DHT22;3513;47.664;9.162;2023-12-04T11:37:25;1.00;98.80
6948;DHT22;3513;47.664;9.162;2023-12-04T11:39:51;1.10;98.50
6948;DHT22;3513;47.664;9.162;2023-12-04T11:42:23;1.30;97.90
6948;DHT22;3513;47.664;9.162;2023-12-04T11:44:53;1.40;97.20
6948;DHT22;3513;47.664;9.162;2023-12-04T11:47:20;1.60;97.00
6948;DHT22;3513;47.664;9.162;2023-12-04T11:49:46;1.70;95.80
6948;DHT22;3513;47.664;9.162;2023-12-04T11:52:12;1.70;95.40
6948;DHT22;3513;47.664;9.162;2023-12-04T11:54:58;1.80;95.70
6948;DHT22;3513;47.664;9.162;2023-12-04T11:57:25;1.80;94.30
6948;DHT22;3513;47.664;9.162;2023-12-04T11:59:52;1.80;94.00
6948;DHT22;3513;47.664;9.162;2023-12-04T12:02:17;1.80;94.80
6948;DHT22;3513;47.664;9.162;2023-12-04T12:04:43;1.80;94.30
6948;DHT22;3513;47.664;9.162;2023-12-04T12:07:11;1.70;94.20
6948;DHT22;3513;47.664;9.162;2023-12-04T12:09:36;1.60;94.60
6948;DHT22;3513;47.664;9.162;2023-12-04T12:12:03;1.50;94.70
6948;DHT22;3513;47.664;9.162;2023-12-04T12:14:29;1.60;94.80
6948;DHT22;3513;47.664;9.162;2023-12-04T12:16:58;1.60;95.70
6948;DHT22;3513;47.664;9.162;2023-12-04T12:19:24;1.80;95.90
6948;DHT22;3513;47.664;9.162;2023-12-04T12:21:49;1.70;93.70
6948;DHT22;3513;47.664;9.162;2023-12-04T12:24:17;1.60;94.00
6948;DHT22;3513;47.664;9.162;2023-12-04T12:26:43;1.60;95.10
6948;DHT22;3513;47.664;9.162;2023-12-04T12:29:10;1.50;94.70
6948;DHT22;3513;47.664;9.162;2023-12-04T12:31:35;1.60;95.80
6948;DHT22;3513;47.664;9.162;2023-12-04T12:34:01;1.60;96.10
6948;DHT22;3513;47.664;9.162;2023-12-04T12:36:28;1.80;95.10
6948;DHT22;3513;47.664;9.162;2023-12-04T12:38:54;1.70;94.60
6948;DHT22;3513;47.664;9.162;2023-12-04T12:41:19;1.90;94.50
6948;DHT22;3513;47.664;9.162;2023-12-04T12:43:45;1.90;94.00
6948;DHT22;3513;47.664;9.162;2023-12-04T12:46:12;1.70;93.60
6948;DHT22;3513;47.664;9.162;2023-12-04T12:48:39;1.70;94.50
6948;DHT22;3513;47.664;9.162;2023-12-04T12:51:05;1.50;94.10
6948;DHT22;3513;47.664;9.162;2023-12-04T12:53:34;1.50;95.40
6948;DHT22;3513;47.664;9.162;2023-12-04T12:56:00;1.60;95.60
6948;DHT22;3513;47.664;9.162;2023-12-04T12:58:27;1.50;94.90
6948;DHT22;3513;47.664;9.162;2023-12-04T13:00:52;1.30;94.60
6948;DHT22;3513;47.664;9.162;2023-12-04T13:03:19;1.50;94.60
6948;DHT22;3513;47.664;9.162;2023-12-04T13:05:46;1.30;94.70
6948;DHT22;3513;47.664;9.162;2023-12-04T13:08:12;1.20;95.20
6948;DHT22;3513;47.664;9.162;2023-12-04T13:10:38;1.00;95.50
6948;DHT22;3513;47.664;9.162;2023-12-04T13:13:04;1.00;95.80
6948;DHT22;3513;47.664;9.162;2023-12-04T13:15:34;1.20;95.60
6948;DHT22;3513;47.664;9.162;2023-12-04T13:18:00;1.10;95.60
6948;DHT22;3513;47.664;9.162;2023-12-04T13:20:25;1.20;95.70
6948;DHT22;3513;47.664;9.162;2023-12-04T13:22:51;1.30;95.30
6948;DHT22;3513;47.664;9.162;2023-12-04T13:25:17;1.20;95.10
6948;DHT22;3513;47.664;9.162;2023-12-04T13:27:42;1.20;95.50
6948;DHT22;3513;47.664;9.162;2023-12-04T13:30:08;1.20;95.70
6948;DHT22;3513;47.664;9.162;2023-12-04T13:32:36;1.20;96.20
6948;DHT22;3513;47.664;9.162;2023-12-04T13:35:02;1.20;95.70
6948;DHT22;3513;47.664;9.162;2023-12-04T13:37:30;1.20;95.60
6948;DHT22;3513;47.664;9.162;2023-12-04T13:39:56;0.90;95.60
6948;DHT22;3513;47.664;9.162;2023-12-04T13:42:26;0.70;96.40
6948;DHT22;3513;47.664;9.162;2023-12-04T13:45:11;0.70;96.80
6948;DHT22;3513;47.664;9.162;2023-12-04T13:47:38;0.70;97.10
6948;DHT22;3513;47.664;9.162;2023-12-04T13:50:05;0.70;97.70
6948;DHT22;3513;47.664;9.162;2023-12-04T13:52:31;0.80;98.50
6948;DHT22;3513;47.664;9.162;2023-12-04T13:54:59;1.00;97.50
6948;DHT22;3513;47.664;9.162;2023-12-04T13:57:25;1.30;97.10
6948;DHT22;3513;47.664;9.162;2023-12-04T13:59:59;1.00;96.60
6948;DHT22;3513;47.664;9.162;2023-12-04T14:02:25;0.90;97.40
6948;DHT22;3513;47.664;9.162;2023-12-04T14:04:51;1.00;96.60
6948;DHT22;3513;47.664;9.162;2023-12-04T14:07:17;0.80;97.00
6948;DHT22;3513;47.664;9.162;2023-12-04T14:09:43;0.70;97.70
6948;DHT22;3513;47.664;9.162;2023-12-04T14:12:13;0.70;98.00
6948;DHT22;3513;47.664;9.162;2023-12-04T14:14:39;0.60;97.70
6948;DHT22;3513;47.664;9.162;2023-12-04T14:17:05;0.50;98.10
6948;DHT22;3513;47.664;9.162;2023-12-04T14:19:32;0.50;98.70
6948;DHT22;3513;47.664;9.162;2023-12-04T14:21:58;0.50;98.70
6948;DHT22;3513;47.664;9.162;2023-12-04T14:24:23;0.50;99.20
6948;DHT22;3513;47.664;9.162;2023-12-04T14:26:49;0.70;99.00
6948;DHT22;3513;47.664;9.162;2023-12-04T14:29:14;0.60;98.60
6948;DHT22;3513;47.664;9.162;2023-12-04T14:31:40;0.80;98.80
6948;DHT22;3513;47.664;9.162;2023-12-04T14:34:06;0.70;98.30
6948;DHT22;3513;47.664;9.162;2023-12-04T14:36:32;0.70;98.30
6948;DHT22;3513;47.664;9.162;2023-12-04T14:38:58;0.40;98.50
6948;DHT22;3513;47.664;9.162;2023-12-04T14:41:24;0.40;98.90
6948;DHT22;3513;47.664;9.162;2023-12-04T14:43:50;0.40;99.00
6948;DHT22;3513;47.664;9.162;2023-12-04T14:46:16;0.30;99.20
6948;DHT22;3513;47.664;9.162;2023-12-04T14:48:42;0.30;98.90
6948;DHT22;3513;47.664;9.162;2023-12-04T14:51:09;0.40;99.10
6948;DHT22;3513;47.664;9.162;2023-12-04T14:53:40;0.30;99.20
6948;DHT22;3513;47.664;9.162;2023-12-04T14:56:12;0.40;99.10
6948;DHT22;3513;47.664;9.162;2023-12-04T14:59:00;0.10;98.80
6948;DHT22;3513;47.664;9.162;2023-12-04T15:01:26;0.20;99.30
6948;DHT22;3513;47.664;9.162;2023-12-04T15:04:10;0.30;99.40
6948;DHT22;3513;47.664;9.162;2023-12-04T15:06:54;0.00;99.20
6948;DHT22;3513;47.664;9.162;2023-12-04T15:09:38;-0.10;99.90
6948;DHT22;3513;47.664;9.162;2023-12-04T15:12:16;0.00;99.90
6948;DHT22;3513;47.664;9.162;2023-12-04T15:14:55;-0.10;99.90
6948;DHT22;3513;47.664;9.162;2023-12-04T15:17:50;-0.10;99.90
6948;DHT22;3513;47.664;9.162;2023-12-04T15:20:38;0.00;99.90
6948;DHT22;3513;47.664;9.162;2023-12-04T15:23:05;0.20;99.90
6948;DHT22;3513;47.664;9.162;2023-12-04T15:25:31;0.10;99.90
6948;DHT22;3513;47.664;9.162;2023-12-04T15:27:56;-0.10;99.90
6948;DHT22;3513;47.664;9.162;2023-12-04T15:30:22;-0.10;99.90
6948;DHT22;3513;47.664;9.162;2023-12-04T15:32:49;0.00;99.90
6948;DHT22;3513;47.664;9.162;2023-12-04T15:35:14;-0.10;99.90
6948;DHT22;3513;47.664;9.162;2023-12-04T15:37:40;-0.10;99.90
6948;DHT22;3513;47.664;9.162;2023-12-04T15:40:06;0.10;99.90
6948;DHT22;3513;47.664;9.162;2023-12-04T15:42:32;-0.10;99.90
6948;DHT22;3513;47.664;9.162;2023-12-04T15:44:57;0.00;99.90
6948;DHT22;3513;47.664;9.162;2023-12-04T15:47:23;-0.10;99.90
6948;DHT22;3513;47.664;9.162;2023-12-04T15:49:50;-0.10;99.90
6948;DHT22;3513;47.664;9.162;2023-12-04T15:52:16;-0.10;99.90
6948;DHT22;3513;47.664;9.162;2023-12-04T15:54:44;-0.20;99.90
6948;DHT22;3513;47.664;9.162;2023-12-04T15:57:10;-0.20;99.90
6948;DHT22;3513;47.664;9.162;2023-12-04T15:59:36;-0.30;99.90
6948;DHT22;3513;47.664;9.162;2023-12-04T16:02:01;-0.40;99.90
6948;DHT22;3513;47.664;9.162;2023-12-04T16:04:27;-0.40;99.90